Time;durP1;ratioP1;P1;durP2;ratioP2;P2;SDS_P1;SDS_P2;PMS_P1;PMS_P2;Temp;Humidity;BMP_temperature;BMP_pressure;BME280_temperature;BME280_humidity;BME280_pressure;Samples;Min_cycle;Max_cycle;Signal;HPM_P1;HPM_P2
2023/03/31 00:01:32;;;;;;;15.00;3.45;;;11.10;99.90;;;;;;5055972;28;20025;-75
2023/03/31 00:04:04;;;;;;;14.02;1.98;;;11.20;99.90;;;;;;5036089;28;20033;-74
2023/03/31 00:06:36;;;;;;;19.45;2.20;;;11.20;99.90;;;;;;5050240;28;20013;-74
2023/03/31 00:09:04;;;;;;;9.15;2.58;;;11.20;99.90;;;;;;5056046;28;20033;-74
2023/03/31 00:11:30;;;;;;;;;;;11.10;99.90;;;;;;5056448;28;20465;-73
2023/03/31 00:13:56;;;;;;;10.93;2.28;;;11.10;99.90;;;;;;5054861;28;19955;-74
2023/03/31 00:16:23;;;;;;;13.50;2.35;;;11.10;99.90;;;;;;5055913;28;20025;-74
2023/03/31 00:18:49;;;;;;;9.88;1.90;;;11.20;99.90;;;;;;5055971;28;20032;-74
2023/03/31 00:21:24;;;;;;;14.70;2.20;;;11.20;99.90;;;;;;5055874;28;20074;-74
2023/03/31 00:23:54;;;;;;;11.48;2.40;;;11.20;99.90;;;;;;5054808;28;20025;-74
2023/03/31 00:26:21;;;;;;;20.67;3.63;;;11.20;99.90;;;;;;5052036;28;20465;-74
2023/03/31 00:28:48;;;;;;;12.80;2.67;;;11.20;99.90;;;;;;5035799;28;20100;-74
2023/03/31 00:31:14;;;;;;;12.13;2.65;;;11.20;99.90;;;;;;5035754;28;20029;-74
2023/03/31 00:33:40;;;;;;;8.07;1.92;;;11.20;99.90;;;;;;5045823;28;20053;-74
2023/03/31 00:36:06;;;;;;;9.13;1.92;;;11.20;99.90;;;;;;5053112;28;20098;-74
2023/03/31 00:38:33;;;;;;;7.25;1.85;;;11.20;99.90;;;;;;5053435;28;20055;-73
2023/03/31 00:40:59;;;;;;;7.47;2.20;;;11.20;99.90;;;;;;5042518;28;20025;-74
2023/03/31 00:43:34;;;;;;;11.45;2.15;;;11.20;99.90;;;;;;5055265;28;20028;-74
2023/03/31 00:46:16;;;;;;;12.68;2.10;;;11.20;99.90;;;;;;5055178;28;20025;-74
2023/03/31 00:48:52;;;;;;;4.05;1.35;;;11.30;99.90;;;;;;5055414;28;20021;-73
2023/03/31 00:51:21;;;;;;;8.48;3.05;;;11.30;99.90;;;;;;5042752;28;20025;-74
2023/03/31 00:53:54;;;;;;;6.15;2.22;;;11.30;99.90;;;;;;5045806;28;20022;-74
2023/03/31 00:56:21;;;;;;;10.68;1.55;;;11.40;99.90;;;;;;5037206;28;20489;-74
2023/03/31 00:58:48;;;;;;;12.27;1.73;;;11.40;99.90;;;;;;5047219;28;20047;-74
2023/03/31 01:01:18;;;;;;;7.97;1.55;;;11.40;99.90;;;;;;5053688;28;20032;-74
2023/03/31 01:03:45;;;;;;;8.38;1.88;;;11.50;99.90;;;;;;5036771;28;20149;-73
2023/03/31 01:06:13;;;;;;;4.65;1.30;;;11.50;99.90;;;;;;5045988;28;20398;-75
2023/03/31 01:08:40;;;;;;;6.97;1.23;;;11.60;99.90;;;;;;5051183;28;20032;-74
2023/03/31 01:11:09;;;;;;;9.35;1.52;;;11.60;99.90;;;;;;5053831;28;20166;-74
2023/03/31 01:13:37;;;;;;;10.27;1.70;;;11.60;99.90;;;;;;5054516;28;20033;-73
2023/03/31 01:16:03;;;;;;;8.32;1.15;;;11.60;99.90;;;;;;5050903;28;20032;-74
2023/03/31 01:18:33;;;;;;;4.97;1.88;;;11.60;99.90;;;;;;5048079;28;20025;-74
2023/03/31 01:21:29;;;;;;;6.15;1.60;;;11.70;99.90;;;;;;5034896;28;20026;-73
2023/03/31 01:24:11;;;;;;;14.70;2.28;;;11.70;99.90;;;;;;5037256;28;20029;-74
2023/03/31 01:26:49;;;;;;;9.55;1.00;;;11.70;99.90;;;;;;5054634;28;20020;-74
2023/03/31 01:29:38;;;;;;;5.72;1.55;;;11.80;99.90;;;;;;5054666;28;20025;-74
2023/03/31 01:32:18;;;;;;;7.95;1.83;;;11.80;99.90;;;;;;5050788;28;20033;-74
2023/03/31 01:35:02;;;;;;;17.27;2.45;;;11.80;99.90;;;;;;5054491;28;20099;-74
2023/03/31 01:37:31;;;;;;;8.98;2.22;;;11.80;99.90;;;;;;5053150;28;20036;-74
2023/03/31 01:40:25;;;;;;;6.97;2.05;;;11.70;99.90;;;;;;5052174;28;20051;-74
2023/03/31 01:43:09;;;;;;;5.63;1.85;;;11.70;99.90;;;;;;5050862;28;20451;-74
2023/03/31 01:45:37;;;;;;;14.40;2.15;;;11.70;99.90;;;;;;5053679;28;20111;-74
2023/03/31 01:48:17;;;;;;;9.90;2.13;;;11.80;99.90;;;;;;5054088;28;20136;-75
2023/03/31 01:51:04;;;;;;;13.10;2.67;;;11.70;99.90;;;;;;5042227;28;20056;-74
2023/03/31 01:53:50;;;;;;;8.55;2.00;;;11.80;99.90;;;;;;5040143;28;20021;-73
2023/03/31 01:56:24;;;;;;;8.35;2.53;;;11.70;99.90;;;;;;5033117;28;20128;-73
2023/03/31 01:58:55;;;;;;;16.45;3.33;;;11.70;99.90;;;;;;5033699;28;21316;-73
2023/03/31 02:01:29;;;;;;;14.45;2.58;;;11.60;99.90;;;;;;5034043;28;20443;-74
2023/03/31 02:04:06;;;;;;;11.38;2.60;;;11.70;99.90;;;;;;5033954;28;20033;-74
2023/03/31 02:06:38;;;;;;;6.68;1.85;;;11.70;99.90;;;;;;5034047;28;20025;-74
2023/03/31 02:09:11;;;;;;;16.88;3.90;;;11.70;99.90;;;;;;5041049;28;20363;-73
2023/03/31 02:11:40;;;;;;;11.75;2.80;;;11.70;99.90;;;;;;5053907;28;20039;-73
2023/03/31 02:14:39;;;;;;;10.88;2.00;;;11.80;99.90;;;;;;5049550;28;20037;-74
2023/03/31 02:17:12;;;;;;;13.10;2.47;;;11.70;99.90;;;;;;5053590;28;20040;-73
2023/03/31 02:19:42;;;;;;;11.27;2.80;;;11.70;99.90;;;;;;5040930;28;20083;-73
2023/03/31 02:22:09;;;;;;;10.93;3.00;;;11.70;99.90;;;;;;5032432;28;20111;-73
2023/03/31 02:24:38;;;;;;;12.07;2.03;;;11.60;99.90;;;;;;5044564;28;20405;-74
2023/03/31 02:27:19;;;;;;;12.15;2.55;;;11.60;99.90;;;;;;5053359;28;20024;-73
2023/03/31 02:29:46;;;;;;;13.88;3.05;;;11.60;99.90;;;;;;5042768;28;20026;-74
2023/03/31 02:32:31;;;;;;;9.77;2.63;;;11.50;99.90;;;;;;5033497;28;20025;-73
2023/03/31 02:34:57;;;;;;;9.38;2.55;;;11.40;99.90;;;;;;5033585;28;20056;-73
2023/03/31 02:37:23;;;;;;;11.57;2.10;;;11.40;99.90;;;;;;5032564;28;20382;-72
2023/03/31 02:39:53;;;;;;;9.13;2.33;;;11.40;99.90;;;;;;5050890;28;20087;-72
2023/03/31 02:42:21;;;;;;;9.77;2.13;;;11.30;99.90;;;;;;5065818;28;20455;-72
2023/03/31 02:44:47;;;;;;;11.40;2.50;;;11.40;99.90;;;;;;5052153;28;20044;-72
2023/03/31 02:47:15;;;;;;;11.50;2.30;;;11.30;99.90;;;;;;5073468;28;20049;-71
2023/03/31 02:49:43;;;;;;;;;;;11.30;99.90;;;;;;5064486;28;20037;-73
2023/03/31 02:52:25;;;;;;;13.85;2.40;;;11.30;99.90;;;;;;5072912;28;20412;-72
2023/03/31 02:55:20;;;;;;;9.68;2.42;;;11.30;99.90;;;;;;5072437;28;20052;-76
2023/03/31 02:58:02;;;;;;;13.55;2.38;;;11.20;99.90;;;;;;5057107;28;20045;-72
2023/03/31 03:00:47;;;;;;;17.45;2.88;;;11.30;99.90;;;;;;5037882;28;20045;-73
2023/03/31 03:03:35;;;;;;;8.85;2.78;;;11.20;99.90;;;;;;5054097;28;20493;-73
2023/03/31 03:06:26;;;;;;;11.32;2.35;;;11.20;99.90;;;;;;5053743;28;20045;-72
2023/03/31 03:09:01;;;;;;;9.77;2.28;;;11.20;99.90;;;;;;5053102;28;20478;-73
2023/03/31 03:11:32;;;;;;;11.68;2.47;;;11.20;99.90;;;;;;5039797;28;20578;-73
2023/03/31 03:14:20;;;;;;;10.15;3.08;;;11.20;99.90;;;;;;5040047;28;20033;-73
2023/03/31 03:16:52;;;;;;;;;;;11.10;99.90;;;;;;5057042;28;20047;-73
2023/03/31 03:19:21;;;;;;;7.82;2.10;;;11.10;99.90;;;;;;5046347;28;20324;-72
2023/03/31 03:21:47;;;;;;;8.18;1.95;;;11.10;99.90;;;;;;5036177;28;20490;-73
2023/03/31 03:24:15;;;;;;;6.10;2.10;;;11.10;99.90;;;;;;5039970;28;20025;-72
2023/03/31 03:26:41;;;;;;;;;;;11.10;99.90;;;;;;5045259;28;20006;-72
2023/03/31 03:29:07;;;;;;;8.52;1.77;;;11.10;99.90;;;;;;5036289;28;20284;-72
2023/03/31 03:31:33;;;;;;;20.08;2.47;;;11.00;99.90;;;;;;5035871;28;20148;-75
2023/03/31 03:33:59;;;;;;;8.77;1.85;;;11.00;99.90;;;;;;5049985;28;20028;-73
2023/03/31 03:36:25;;;;;;;8.15;1.80;;;11.00;99.90;;;;;;5056479;28;20033;-73
2023/03/31 03:38:51;;;;;;;9.63;2.67;;;11.00;99.90;;;;;;5054692;28;20029;-73
2023/03/31 03:41:16;;;;;;;9.63;2.50;;;11.00;99.90;;;;;;5051499;28;20446;-73
2023/03/31 03:43:42;;;;;;;4.38;2.00;;;11.00;99.90;;;;;;5054278;28;20045;-72
2023/03/31 03:46:07;;;;;;;11.75;2.67;;;11.00;99.90;;;;;;5054550;28;20429;-73
2023/03/31 03:48:33;;;;;;;6.95;1.85;;;11.00;99.90;;;;;;5055947;28;20100;-72
2023/03/31 03:51:00;;;;;;;14.65;2.38;;;11.00;99.90;;;;;;5048646;28;20121;-72
2023/03/31 03:53:25;;;;;;;8.15;2.40;;;10.90;99.90;;;;;;5054496;28;20083;-72
2023/03/31 03:55:51;;;;;;;13.00;2.83;;;10.90;99.90;;;;;;5053516;28;20041;-71
2023/03/31 03:58:18;;;;;;;9.55;2.60;;;10.90;99.90;;;;;;5054185;28;20047;-71
2023/03/31 04:00:45;;;;;;;11.27;2.75;;;10.90;99.90;;;;;;5050105;28;20018;-72
2023/03/31 04:03:11;;;;;;;10.68;3.25;;;10.90;99.90;;;;;;5034801;28;20029;-72
2023/03/31 04:05:37;;;;;;;7.80;2.13;;;10.90;99.90;;;;;;5033973;28;20481;-73
2023/03/31 04:08:04;;;;;;;10.43;2.25;;;10.90;99.90;;;;;;5034162;28;20026;-73
2023/03/31 04:10:30;;;;;;;6.27;1.70;;;10.80;99.90;;;;;;5037032;28;20081;-73
2023/03/31 04:12:56;;;;;;;6.68;1.23;;;10.90;99.90;;;;;;5039187;28;20677;-72
2023/03/31 04:15:22;;;;;;;5.35;1.83;;;10.90;99.90;;;;;;5037560;28;20070;-72
2023/03/31 04:17:49;;;;;;;12.77;1.60;;;10.80;99.90;;;;;;5038698;28;20087;-73
2023/03/31 04:20:16;;;;;;;8.38;1.35;;;10.70;99.90;;;;;;5041086;28;20059;-72
2023/03/31 04:22:45;;;;;;;5.57;1.33;;;10.70;99.90;;;;;;5055849;28;20115;-73
2023/03/31 04:25:15;;;;;;;11.18;1.40;;;10.70;99.90;;;;;;5051499;28;20049;-73
2023/03/31 04:27:49;;;;;;;8.60;1.63;;;10.80;99.90;;;;;;5037759;28;20079;-73
2023/03/31 04:30:21;;;;;;;4.85;0.95;;;10.80;99.90;;;;;;5036346;28;20048;-73
2023/03/31 04:32:54;;;;;;;6.00;1.25;;;10.70;99.90;;;;;;5051751;28;20034;-73
2023/03/31 04:35:21;;;;;;;8.18;1.25;;;10.70;99.90;;;;;;5043309;28;20028;-73
2023/03/31 04:37:51;;;;;;;17.25;1.50;;;10.70;99.90;;;;;;5054070;28;20052;-74
2023/03/31 04:40:17;;;;;;;6.50;1.50;;;10.70;99.90;;;;;;5052665;28;20041;-72
2023/03/31 04:42:44;;;;;;;5.85;1.50;;;10.70;99.90;;;;;;5034368;28;20088;-72
2023/03/31 04:45:11;;;;;;;8.32;1.55;;;10.70;99.90;;;;;;5033702;28;20037;-72
2023/03/31 04:47:37;;;;;;;6.70;2.00;;;10.70;99.90;;;;;;5050948;28;20490;-72
2023/03/31 04:50:03;;;;;;;9.13;2.28;;;10.70;99.90;;;;;;5044146;28;20493;-73
2023/03/31 04:52:29;;;;;;;11.10;2.17;;;10.60;99.90;;;;;;5048135;28;20032;-72
2023/03/31 04:54:54;;;;;;;5.88;1.25;;;10.70;99.90;;;;;;5052676;28;20037;-73
2023/03/31 04:57:20;;;;;;;11.68;2.08;;;10.70;99.90;;;;;;5037417;28;20100;-74
2023/03/31 04:59:46;;;;;;;12.07;3.53;;;10.60;99.90;;;;;;5035297;28;20048;-74
2023/03/31 05:02:11;;;;;;;8.82;1.55;;;10.60;99.90;;;;;;5033973;28;20025;-74
2023/03/31 05:04:37;;;;;;;6.25;1.90;;;10.70;99.90;;;;;;5049987;28;20064;-73
2023/03/31 05:07:03;;;;;;;9.77;1.52;;;10.70;99.90;;;;;;5035044;28;20028;-73
2023/03/31 05:09:29;;;;;;;4.55;2.15;;;10.60;99.90;;;;;;5035150;28;20446;-73
2023/03/31 05:11:56;;;;;;;6.78;2.22;;;10.70;99.90;;;;;;5046403;28;20032;-73
2023/03/31 05:14:21;;;;;;;5.78;1.73;;;10.60;99.90;;;;;;5053811;28;20116;-73
2023/03/31 05:16:47;;;;;;;8.27;1.80;;;10.60;99.90;;;;;;5054909;28;20067;-74
2023/03/31 05:19:12;;;;;;;6.47;1.88;;;10.70;99.90;;;;;;5054813;28;20389;-74
2023/03/31 05:21:38;;;;;;;5.55;1.58;;;10.70;99.90;;;;;;5046833;28;20036;-73
2023/03/31 05:24:04;;;;;;;3.88;1.33;;;10.70;99.90;;;;;;5054704;28;20492;-74
2023/03/31 05:26:29;;;;;;;6.35;1.25;;;10.60;99.90;;;;;;5053000;28;20072;-74
2023/03/31 05:28:55;;;;;;;6.55;1.73;;;10.70;99.90;;;;;;5053637;28;20021;-74
2023/03/31 05:31:21;;;;;;;6.32;1.73;;;10.60;99.90;;;;;;5053131;28;20029;-74
2023/03/31 05:33:47;;;;;;;9.80;1.75;;;10.60;99.90;;;;;;5054660;28;20029;-74
2023/03/31 05:36:15;;;;;;;2.67;1.77;;;10.60;99.90;;;;;;5040428;28;20029;-73
2023/03/31 05:38:41;;;;;;;9.32;1.50;;;10.60;99.90;;;;;;5038973;28;20029;-74
2023/03/31 05:41:08;;;;;;;10.85;1.95;;;10.60;99.90;;;;;;5052772;28;20032;-74
2023/03/31 05:43:35;;;;;;;7.78;1.52;;;10.70;99.90;;;;;;5045246;28;20025;-73
2023/03/31 05:46:01;;;;;;;3.33;1.75;;;10.70;99.90;;;;;;5045960;28;20100;-74
2023/03/31 05:48:26;;;;;;;8.10;1.50;;;10.70;99.90;;;;;;5054075;28;20075;-73
2023/03/31 05:50:56;;;;;;;10.40;1.33;;;10.70;99.90;;;;;;5054255;28;20027;-73
2023/03/31 05:53:22;;;;;;;10.90;1.95;;;10.70;99.90;;;;;;5054190;28;20017;-73
2023/03/31 05:55:48;;;;;;;7.78;1.17;;;10.70;99.90;;;;;;5048252;28;20025;-73
2023/03/31 05:58:14;;;;;;;6.13;1.67;;;10.80;99.90;;;;;;5038963;28;20017;-73
2023/03/31 06:00:39;;;;;;;14.05;1.75;;;10.80;99.90;;;;;;5035635;28;20023;-75
2023/03/31 06:03:06;;;;;;;4.88;1.10;;;10.80;99.90;;;;;;5039628;28;20025;-75
2023/03/31 06:05:33;;;;;;;11.07;2.28;;;10.70;99.90;;;;;;5034051;28;20017;-73
2023/03/31 06:07:59;;;;;;;8.82;1.10;;;10.80;99.90;;;;;;5034003;28;20025;-74
2023/03/31 06:10:25;;;;;;;5.88;1.38;;;10.80;99.90;;;;;;5034031;28;20053;-74
2023/03/31 06:12:50;;;;;;;7.57;1.35;;;10.80;99.90;;;;;;5035519;28;20025;-74
2023/03/31 06:15:16;;;;;;;6.05;1.13;;;10.80;99.90;;;;;;5053847;28;20067;-74
2023/03/31 06:17:43;;;;;;;5.70;1.60;;;10.80;99.90;;;;;;5053649;28;20021;-74
2023/03/31 06:20:09;;;;;;;8.48;2.05;;;10.80;99.90;;;;;;5047626;28;20021;-74
2023/03/31 06:22:34;;;;;;;6.32;1.40;;;10.70;99.90;;;;;;5033744;28;20025;-74
2023/03/31 06:25:00;;;;;;;3.45;0.90;;;10.70;99.90;;;;;;5032687;28;20528;-74
2023/03/31 06:27:25;;;;;;;2.72;0.88;;;10.80;99.90;;;;;;5033660;28;20072;-74
2023/03/31 06:29:51;;;;;;;4.93;1.00;;;10.80;99.90;;;;;;5032273;28;20017;-75
2023/03/31 06:32:17;;;;;;;8.27;1.50;;;10.80;99.90;;;;;;5041249;28;20036;-75
2023/03/31 06:34:42;;;;;;;3.03;0.90;;;10.80;99.90;;;;;;5053417;28;20028;-74
2023/03/31 06:37:08;;;;;;;2.85;1.00;;;10.80;99.90;;;;;;5040371;28;20025;-74
2023/03/31 06:39:35;;;;;;;2.28;1.15;;;10.80;99.90;;;;;;5033977;28;20390;-75
2023/03/31 06:42:00;;;;;;;9.90;1.23;;;10.90;99.90;;;;;;5034208;28;20029;-75
2023/03/31 06:44:26;;;;;;;6.05;0.93;;;10.90;99.90;;;;;;5032797;28;20017;-76
2023/03/31 06:46:52;;;;;;;8.27;1.00;;;10.80;99.90;;;;;;5033721;28;20163;-74
2023/03/31 06:49:17;;;;;;;3.55;0.85;;;10.80;99.90;;;;;;5033729;28;20021;-75
2023/03/31 06:51:43;;;;;;;7.35;0.70;;;10.80;99.90;;;;;;5051779;28;20531;-74
2023/03/31 06:54:09;;;;;;;2.42;0.50;;;10.80;99.90;;;;;;5035751;28;20386;-72
2023/03/31 06:56:34;;;;;;;0.88;0.70;;;10.90;99.90;;;;;;5052438;28;20033;-74
2023/03/31 06:59:00;;;;;;;4.32;0.95;;;10.90;99.90;;;;;;5052075;28;20497;-73
2023/03/31 07:01:25;;;;;;;3.28;1.45;;;10.90;99.90;;;;;;5052294;28;20033;-73
2023/03/31 07:03:51;;;;;;;3.40;0.80;;;10.90;99.90;;;;;;5053208;28;20029;-74
2023/03/31 07:06:17;;;;;;;8.73;1.00;;;10.90;99.90;;;;;;5049187;28;20056;-74
2023/03/31 07:08:42;;;;;;;8.40;1.00;;;10.80;99.90;;;;;;5031651;28;20024;-74
2023/03/31 07:11:08;;;;;;;1.60;0.73;;;10.90;99.90;;;;;;5039549;28;20079;-75
2023/03/31 07:13:34;;;;;;;3.70;0.70;;;10.90;99.90;;;;;;5048527;28;20033;-74
2023/03/31 07:15:59;;;;;;;1.17;0.55;;;10.80;99.90;;;;;;5042057;28;20022;-73
2023/03/31 07:18:30;;;;;;;3.35;0.82;;;10.80;99.90;;;;;;5032211;28;20025;-73
2023/03/31 07:20:56;;;;;;;8.52;0.95;;;10.80;99.90;;;;;;5037754;28;20040;-76
2023/03/31 07:23:23;;;;;;;3.30;0.70;;;10.80;99.90;;;;;;5050343;28;20017;-74
2023/03/31 07:25:49;;;;;;;1.20;0.55;;;10.80;99.90;;;;;;5050605;28;20493;-75
2023/03/31 07:28:15;;;;;;;3.95;0.95;;;10.80;99.90;;;;;;5051944;28;20114;-72
2023/03/31 07:30:41;;;;;;;2.00;0.80;;;10.80;99.90;;;;;;5052425;28;20496;-74
2023/03/31 07:33:06;;;;;;;4.93;0.73;;;10.80;99.90;;;;;;5033151;28;20022;-75
2023/03/31 07:35:32;;;;;;;4.88;0.60;;;10.90;99.90;;;;;;5032705;28;20021;-79
2023/03/31 07:37:58;;;;;;;2.35;0.98;;;11.00;99.90;;;;;;5042534;28;20461;-73
2023/03/31 07:40:26;;;;;;;3.13;0.98;;;11.00;99.90;;;;;;5051373;28;20028;-76
2023/03/31 07:42:52;;;;;;;5.47;0.88;;;11.00;99.90;;;;;;5045257;28;20032;-73
2023/03/31 07:45:20;;;;;;;4.97;1.50;;;11.10;99.90;;;;;;5039436;28;20029;-74
2023/03/31 07:47:46;;;;;;;6.65;1.77;;;11.10;99.90;;;;;;5040340;28;20072;-75
2023/03/31 07:50:14;;;;;;;5.60;1.25;;;11.10;99.90;;;;;;5051525;28;20025;-76
2023/03/31 07:52:40;;;;;;;2.17;0.93;;;11.00;99.90;;;;;;5048255;28;20040;-76
2023/03/31 07:55:07;;;;;;;6.68;1.00;;;11.10;99.90;;;;;;5055327;28;20083;-75
2023/03/31 07:57:33;;;;;;;5.93;1.30;;;11.20;99.90;;;;;;5056783;28;20032;-73
2023/03/31 07:59:59;;;;;;;5.13;1.02;;;11.20;99.90;;;;;;5056564;28;20052;-72
2023/03/31 08:02:25;;;;;;;6.43;1.25;;;11.30;99.90;;;;;;5053387;28;20032;-74
2023/03/31 08:04:51;;;;;;;5.45;1.40;;;11.30;99.90;;;;;;5044246;28;20114;-75
2023/03/31 08:07:16;;;;;;;8.00;1.20;;;11.40;99.90;;;;;;5040405;28;20056;-76
2023/03/31 08:09:45;;;;;;;13.18;1.50;;;11.50;99.90;;;;;;5035286;28;20010;-77
2023/03/31 08:12:12;;;;;;;5.07;1.60;;;11.70;99.90;;;;;;5038936;28;20018;-79
2023/03/31 08:14:38;;;;;;;4.70;2.35;;;11.70;99.90;;;;;;5043597;28;20032;-79
2023/03/31 08:17:04;;;;;;;5.30;1.58;;;11.60;99.90;;;;;;5041826;28;20116;-79
2023/03/31 08:19:29;;;;;;;2.42;1.65;;;11.60;99.90;;;;;;5037463;28;20091;-79
2023/03/31 08:21:55;;;;;;;6.60;2.08;;;11.50;99.90;;;;;;5051373;28;20037;-78
2023/03/31 08:24:21;;;;;;;9.43;1.92;;;11.60;99.90;;;;;;5037319;28;20056;-79
2023/03/31 08:26:46;;;;;;;4.63;1.92;;;11.50;99.90;;;;;;5044006;28;20079;-81
2023/03/31 08:29:13;;;;;;;7.70;2.50;;;11.50;99.90;;;;;;5035835;28;20020;-80
2023/03/31 08:31:38;;;;;;;9.30;2.15;;;11.50;99.90;;;;;;5045260;28;20049;-79
2023/03/31 08:34:05;;;;;;;9.45;2.65;;;11.40;99.90;;;;;;5051572;28;20060;-76
2023/03/31 08:36:31;;;;;;;9.25;2.35;;;11.40;99.90;;;;;;5046928;28;20035;-76
2023/03/31 08:38:57;;;;;;;4.55;2.08;;;11.40;99.90;;;;;;5035949;28;20021;-77
2023/03/31 08:41:36;;;;;;;11.68;2.20;;;11.30;99.90;;;;;;5050589;28;20512;-77
2023/03/31 08:44:09;;;;;;;10.40;2.47;;;11.40;99.90;;;;;;5051166;28;20040;-78
2023/03/31 08:46:36;;;;;;;6.28;2.20;;;11.40;99.90;;;;;;5054751;28;20052;-77
2023/03/31 08:49:03;;;;;;;8.02;2.60;;;11.40;99.90;;;;;;5054461;28;20060;-78
2023/03/31 08:51:51;;;;;;;15.38;3.38;;;11.60;99.90;;;;;;5052056;28;20025;-77
2023/03/31 08:54:19;;;;;;;10.77;2.60;;;11.50;99.90;;;;;;5043615;28;20485;-77
2023/03/31 08:56:49;;;;;;;24.13;2.95;;;11.50;99.90;;;;;;5034495;28;20030;-78
2023/03/31 08:59:29;;;;;;;12.20;2.40;;;11.50;99.90;;;;;;5035421;28;20123;-78
2023/03/31 09:02:06;;;;;;;13.45;3.30;;;11.40;99.90;;;;;;5038063;28;20029;-78
2023/03/31 09:04:52;;;;;;;15.07;2.63;;;11.50;99.90;;;;;;5034288;28;20033;-78
2023/03/31 09:07:33;;;;;;;12.57;3.50;;;11.40;99.90;;;;;;5036533;28;20029;-76
2023/03/31 09:10:08;;;;;;;12.50;3.00;;;11.40;99.90;;;;;;5044880;28;20434;-76
2023/03/31 09:12:52;;;;;;;13.93;3.03;;;11.50;99.90;;;;;;5050284;28;20021;-75
2023/03/31 09:15:28;;;;;;;20.08;3.15;;;11.60;99.90;;;;;;5048764;28;20393;-76
2023/03/31 09:17:58;;;;;;;17.10;3.08;;;11.70;99.90;;;;;;5047237;28;20022;-75
2023/03/31 09:20:30;;;;;;;18.15;2.35;;;11.90;99.90;;;;;;5054110;28;20044;-76
2023/03/31 09:23:30;;;;;;;22.88;2.75;;;12.00;99.90;;;;;;5040446;28;20029;-76
2023/03/31 09:25:58;;;;;;;18.67;3.03;;;12.30;99.90;;;;;;5035038;28;20035;-76
2023/03/31 09:28:39;;;;;;;14.80;2.00;;;12.50;99.90;;;;;;5055135;28;20013;-76
2023/03/31 09:31:14;;;;;;;10.98;2.95;;;12.70;99.90;;;;;;5055236;28;20036;-75
2023/03/31 09:33:44;;;;;;;13.32;2.03;;;12.70;99.90;;;;;;5050569;28;20025;-76
2023/03/31 09:36:16;;;;;;;10.68;2.38;;;12.90;99.90;;;;;;5051817;28;20121;-75
2023/03/31 09:38:45;;;;;;;18.85;2.53;;;12.90;99.90;;;;;;5054821;28;20041;-77
2023/03/31 09:41:13;;;;;;;19.00;2.95;;;13.10;99.90;;;;;;5049862;28;20028;-76
2023/03/31 09:43:40;;;;;;;21.63;2.67;;;13.10;99.90;;;;;;5052623;28;20097;-76
2023/03/31 09:46:30;;;;;;;21.70;3.80;;;13.10;99.90;;;;;;5039413;28;20067;-77
2023/03/31 09:49:31;;;;;;;9.80;2.90;;;13.10;99.90;;;;;;5037012;28;20061;-76
2023/03/31 09:52:11;;;;;;;11.07;2.03;;;13.20;99.90;;;;;;5039969;28;20037;-76
2023/03/31 09:54:45;;;;;;;11.63;2.33;;;13.30;99.90;;;;;;5034511;28;20120;-76
2023/03/31 09:57:27;;;;;;;16.85;2.63;;;13.50;99.90;;;;;;5042140;28;20061;-77
2023/03/31 10:00:00;;;;;;;13.43;2.55;;;13.60;99.90;;;;;;5053136;28;20036;-75
2023/03/31 10:02:34;;;;;;;21.98;2.45;;;13.50;99.90;;;;;;5035059;28;20035;-77
2023/03/31 10:05:01;;;;;;;8.23;1.90;;;13.60;99.90;;;;;;5038114;28;20036;-76
2023/03/31 10:07:27;;;;;;;12.60;2.47;;;13.60;99.90;;;;;;5040898;28;20163;-75
2023/03/31 10:09:56;;;;;;;15.98;2.10;;;13.40;99.90;;;;;;5032969;28;20112;-75
2023/03/31 10:12:28;;;;;;;16.35;2.25;;;13.40;99.90;;;;;;5035640;28;20096;-76
2023/03/31 10:15:10;;;;;;;10.02;2.60;;;13.40;99.90;;;;;;5046859;28;20075;-76
2023/03/31 10:17:42;;;;;;;10.23;2.53;;;13.40;99.90;;;;;;5052172;28;20037;-75
2023/03/31 10:20:29;;;;;;;12.05;2.20;;;13.40;99.90;;;;;;5037826;28;20040;-75
2023/03/31 10:22:55;;;;;;;9.38;1.67;;;13.50;99.90;;;;;;5050039;28;20037;-75
2023/03/31 10:25:26;;;;;;;8.82;2.80;;;13.60;99.90;;;;;;5053828;28;20440;-76
2023/03/31 10:27:54;;;;;;;13.95;2.63;;;13.70;99.90;;;;;;5051298;28;20028;-76
2023/03/31 10:30:22;;;;;;;13.90;3.25;;;13.70;99.90;;;;;;5052408;28;20079;-76
2023/03/31 10:32:48;;;;;;;12.20;2.13;;;13.60;99.90;;;;;;5053938;28;20033;-76
2023/03/31 10:35:28;;;;;;;13.20;1.90;;;13.70;99.90;;;;;;5052098;28;20491;-77
2023/03/31 10:37:57;;;;;;;11.73;2.10;;;13.60;99.90;;;;;;5052943;28;20037;-76
2023/03/31 10:40:30;;;;;;;15.35;2.33;;;13.70;99.90;;;;;;5053407;28;20489;-76
2023/03/31 10:43:18;;;;;;;17.40;3.38;;;13.60;99.90;;;;;;5052214;28;20036;-77
2023/03/31 10:45:48;;;;;;;9.98;1.65;;;13.50;99.90;;;;;;5051448;28;20025;-76
2023/03/31 10:48:29;;;;;;;11.48;1.95;;;13.60;99.90;;;;;;5052323;28;20060;-77
2023/03/31 10:51:02;;;;;;;9.05;1.77;;;13.70;99.90;;;;;;5049869;28;20041;-77
2023/03/31 10:53:28;;;;;;;11.25;1.65;;;13.60;99.90;;;;;;5039267;28;20136;-77
2023/03/31 10:56:12;;;;;;;11.25;1.85;;;13.70;99.90;;;;;;5033081;28;20116;-76
2023/03/31 10:58:44;;;;;;;9.32;2.13;;;13.70;99.90;;;;;;5033762;28;20022;-77
2023/03/31 11:01:21;;;;;;;8.95;2.42;;;13.70;99.90;;;;;;5031207;28;20040;-75
2023/03/31 11:04:07;;;;;;;11.07;1.98;;;13.50;99.90;;;;;;5031949;28;20135;-77
2023/03/31 11:07:01;;;;;;;11.07;2.67;;;13.30;99.90;;;;;;5049638;28;20025;-76
2023/03/31 11:09:42;;;;;;;14.00;2.13;;;13.00;99.90;;;;;;5050862;28;20040;-76
2023/03/31 11:12:22;;;;;;;12.32;2.35;;;12.90;99.90;;;;;;5051132;28;20035;-77
2023/03/31 11:15:09;;;;;;;11.35;2.30;;;12.90;99.90;;;;;;5046038;28;20071;-77
2023/03/31 11:17:49;;;;;;;10.20;2.20;;;12.70;99.90;;;;;;5032608;28;20084;-76
2023/03/31 11:20:38;;;;;;;11.55;2.55;;;12.70;99.90;;;;;;5032031;28;20072;-76
2023/03/31 11:23:32;;;;;;;22.98;2.47;;;12.60;99.90;;;;;;5031317;28;20025;-77
2023/03/31 11:26:06;;;;;;;12.95;2.58;;;12.40;99.90;;;;;;5033488;28;20040;-76
2023/03/31 11:28:59;;;;;;;11.43;1.95;;;12.30;99.90;;;;;;5031132;28;20466;-77
2023/03/31 11:31:51;;;;;;;9.27;1.67;;;12.30;99.90;;;;;;5031745;28;20037;-77
2023/03/31 11:34:52;;;;;;;7.10;2.28;;;12.30;99.90;;;;;;5037840;28;20052;-76
2023/03/31 11:37:30;;;;;;;13.35;2.85;;;12.30;99.90;;;;;;5033902;28;20037;-78
2023/03/31 11:40:08;;;;;;;15.88;3.05;;;12.30;99.90;;;;;;5031698;28;20040;-77
2023/03/31 11:42:37;;;;;;;;;;;12.30;99.90;;;;;;5034678;28;20112;-78
2023/03/31 11:45:16;;;;;;;9.45;2.17;;;12.30;99.90;;;;;;5033265;28;19936;-77
2023/03/31 11:47:45;;;;;;;5.05;1.50;;;12.40;99.90;;;;;;5031734;28;20496;-78
2023/03/31 11:50:22;;;;;;;10.13;1.92;;;12.50;99.90;;;;;;5036121;28;20447;-78
2023/03/31 11:52:59;;;;;;;11.35;1.98;;;12.50;99.90;;;;;;5033622;28;20033;-78
2023/03/31 11:55:28;;;;;;;9.38;2.22;;;12.80;99.90;;;;;;5033107;28;20042;-79
2023/03/31 11:58:01;;;;;;;7.57;1.67;;;13.10;99.90;;;;;;5032269;28;20032;-77
2023/03/31 12:00:37;;;;;;;8.27;1.52;;;13.20;99.90;;;;;;5049721;28;20029;-77
2023/03/31 12:03:06;;;;;;;14.55;1.75;;;13.40;99.90;;;;;;5049263;28;20405;-78
2023/03/31 12:05:38;;;;;;;15.07;1.55;;;13.30;99.90;;;;;;5053010;28;20060;-77
2023/03/31 12:08:15;;;;;;;3.92;1.30;;;13.30;99.90;;;;;;5033172;28;20040;-77
2023/03/31 12:10:50;;;;;;;11.90;1.48;;;13.30;99.90;;;;;;5035310;28;20059;-76
2023/03/31 12:13:30;;;;;;;6.70;1.45;;;13.30;99.90;;;;;;5035656;28;20029;-77
2023/03/31 12:16:03;;;;;;;6.63;1.50;;;13.20;99.90;;;;;;5040438;28;20017;-77
2023/03/31 12:18:37;;;;;;;7.80;1.92;;;13.20;99.90;;;;;;5044859;28;20420;-78
2023/03/31 12:21:05;;;;;;;5.97;1.88;;;13.20;99.90;;;;;;5040818;28;20422;-78
2023/03/31 12:23:39;;;;;;;10.15;2.08;;;13.20;99.90;;;;;;5033177;28;20093;-78
2023/03/31 12:26:44;;;;;;;2.70;1.00;;;13.30;99.90;;;;;;5042009;28;20032;-78
2023/03/31 12:29:26;;;;;;;9.88;1.60;;;13.30;99.90;;;;;;5037779;28;20108;-77
2023/03/31 12:31:56;;;;;;;7.32;1.33;;;13.40;99.90;;;;;;5054372;28;20108;-77
2023/03/31 12:34:23;;;;;;;7.97;1.70;;;13.30;99.90;;;;;;5054445;28;20039;-77
2023/03/31 12:37:09;;;;;;;3.95;1.23;;;13.20;99.90;;;;;;5054689;28;20036;-78
2023/03/31 12:40:04;;;;;;;4.38;0.95;;;13.10;99.90;;;;;;5044429;28;20029;-78
2023/03/31 12:42:54;;;;;;;4.22;1.33;;;13.00;99.90;;;;;;5055863;28;20079;-79
2023/03/31 12:45:30;;;;;;;5.03;1.33;;;13.10;99.90;;;;;;5054314;28;20097;-79
2023/03/31 12:48:20;;;;;;;4.72;1.02;;;13.10;99.90;;;;;;5049923;28;20479;-78
2023/03/31 12:51:04;;;;;;;9.57;1.08;;;13.10;99.90;;;;;;5036165;28;20025;-78
2023/03/31 12:53:33;;;;;;;9.63;1.23;;;13.00;99.90;;;;;;5034527;28;20468;-79
2023/03/31 12:55:59;;;;;;;8.88;2.05;;;12.90;99.90;;;;;;5034629;28;20029;-78
2023/03/31 12:58:32;;;;;;;6.30;1.17;;;12.80;99.90;;;;;;5039931;28;20567;-78
2023/03/31 13:01:13;;;;;;;6.35;1.10;;;12.80;99.90;;;;;;5036538;28;20039;-78
2023/03/31 13:03:45;;;;;;;12.85;2.08;;;12.70;99.90;;;;;;5050443;28;20084;-78
2023/03/31 13:06:32;;;;;;;13.85;1.65;;;12.70;99.90;;;;;;5034673;28;20382;-78